Time;durP1;ratioP1;P1;durP2;ratioP2;P2;SDS_P1;SDS_P2;PMS_P1;PMS_P2;Temp;Humidity;BMP_temperature;BMP_pressure;BME280_temperature;BME280_humidity;BME280_pressure;Samples;Min_cycle;Max_cycle;Signal;HPM_P1;HPM_P2
2023/02/04 00:00:06;;;;;;;0.40;0.40;;;;;;;2.18;72.14;96820.41;4986835;28;20473;-59
2023/02/04 00:02:33;;;;;;;0.30;0.30;;;;;;;1.95;72.47;96783.44;4991590;28;20054;-59
2023/02/04 00:05:00;;;;;;;0.45;0.45;;;;;;;1.78;71.72;96750.69;5006265;28;20062;-57
2023/02/04 00:07:26;;;;;;;0.40;0.40;;;;;;;2.13;71.51;96812.38;5003895;28;20151;-59
2023/02/04 00:09:53;;;;;;;0.77;0.77;;;;;;;2.01;70.63;96776.72;5006171;28;20086;-58
2023/02/04 00:12:20;;;;;;;0.40;0.40;;;;;;;1.98;70.55;96766.41;5005503;28;20476;-57
2023/02/04 00:14:46;;;;;;;0.40;0.40;;;;;;;2.25;71.63;96798.84;5004341;28;20156;-58
2023/02/04 00:17:13;;;;;;;0.38;0.38;;;;;;;2.24;71.08;96802.72;5004994;28;20054;-59
2023/02/04 00:19:40;;;;;;;0.40;0.40;;;;;;;2.21;71.08;96786.97;5005449;28;20050;-57
2023/02/04 00:22:07;;;;;;;0.43;0.43;;;;;;;1.92;69.87;96740.38;5005177;28;20141;-59
2023/02/04 00:24:35;;;;;;;0.30;0.30;;;;;;;2.26;69.96;96775.88;5005734;28;20057;-60
2023/02/04 00:27:03;;;;;;;0.40;0.40;;;;;;;2.21;69.61;96771.41;5004348;28;20042;-60
2023/02/04 00:29:29;;;;;;;0.30;0.30;;;;;;;2.22;69.96;96772.97;5005733;28;20057;-59
2023/02/04 00:31:56;;;;;;;0.40;0.40;;;;;;;2.28;70.47;96765.41;5004938;28;20062;-59
2023/02/04 00:34:23;;;;;;;0.40;0.40;;;;;;;2.27;69.29;96747.41;5005800;28;20153;-59
2023/02/04 00:36:50;;;;;;;0.40;0.40;;;;;;;2.32;69.54;96747.25;5004771;28;20534;-59
2023/02/04 00:39:16;;;;;;;0.40;0.40;;;;;;;2.43;70.23;96759.44;5003788;28;20108;-59
2023/02/04 00:41:43;;;;;;;0.35;0.35;;;;;;;2.43;70.21;96767.66;5005400;28;20590;-57
2023/02/04 00:44:10;;;;;;;0.50;0.50;;;;;;;2.45;70.34;96754.47;5005492;28;20053;-57
2023/02/04 00:46:36;;;;;;;0.40;0.40;;;;;;;2.32;70.27;96750.00;5004769;28;20069;-57
2023/02/04 00:49:05;;;;;;;0.40;0.40;;;;;;;2.01;70.97;96692.03;5005107;28;20487;-58
2023/02/04 00:51:32;;;;;;;0.40;0.40;;;;;;;2.21;71.59;96732.34;5004641;28;20432;-59
2023/02/04 00:53:58;;;;;;;0.40;0.40;;;;;;;-0.87;71.03;96213.06;5003370;28;20177;-59
2023/02/04 00:56:25;;;;;;;2.53;2.35;;;;;;;2.41;71.52;96737.91;5004432;28;20748;-58
2023/02/04 00:58:51;;;;;;;0.40;0.40;;;;;;;2.45;70.89;96727.13;5004422;28;20061;-59
2023/02/04 01:01:18;;;;;;;0.32;0.32;;;;;;;2.49;69.99;96733.53;5006996;28;20096;-58
2023/02/04 01:03:45;;;;;;;0.30;0.30;;;;;;;2.48;70.50;96729.22;5003536;28;20068;-59
2023/02/04 01:06:11;;;;;;;3.00;1.60;;;;;;;2.39;71.46;96718.28;5005229;28;20046;-57
2023/02/04 01:08:38;;;;;;;0.50;0.50;;;;;;;2.45;71.94;96721.66;5002780;28;20134;-58
2023/02/04 01:11:05;;;;;;;0.40;0.40;;;;;;;2.41;72.87;96720.69;5004323;28;20053;-57
2023/02/04 01:13:31;;;;;;;0.30;0.30;;;;;;;2.11;72.00;96646.06;5004662;28;20154;-59
2023/02/04 01:15:58;;;;;;;0.40;0.40;;;;;;;1.98;71.84;96630.66;5003272;28;20100;-57
2023/02/04 01:18:24;;;;;;;2.83;2.17;;;;;;;1.98;72.23;96646.25;5004632;28;20049;-56
2023/02/04 01:20:51;;;;;;;0.40;0.40;;;;;;;2.34;71.31;96676.69;5004869;28;20054;-58
2023/02/04 01:23:18;;;;;;;0.68;0.68;;;;;;;2.34;69.98;96676.69;5004372;28;20046;-57
2023/02/04 01:25:44;;;;;;;1.00;0.60;;;;;;;2.00;70.51;96611.22;5004583;28;20128;-57
2023/02/04 01:28:11;;;;;;;1.92;1.83;;;;;;;2.45;70.89;96683.41;5004299;28;20092;-58
2023/02/04 01:30:38;;;;;;;0.40;0.40;;;;;;;2.42;71.64;96667.66;5003204;28;20053;-57
2023/02/04 01:33:04;;;;;;;3.13;3.03;;;;;;;2.36;70.79;96669.75;5004125;28;20058;-58
2023/02/04 01:35:32;;;;;;;0.40;0.40;;;;;;;2.49;70.08;96668.75;5004317;28;20595;-58
2023/02/04 01:37:58;;;;;;;0.43;0.43;;;;;;;2.51;70.01;96657.50;5004083;28;20064;-59
2023/02/04 01:40:25;;;;;;;0.40;0.40;;;;;;;2.52;69.68;96648.16;5004317;28;20050;-56
2023/02/04 01:42:52;;;;;;;0.40;0.40;;;;;;;1.84;68.89;96542.69;5004146;28;20505;-58
2023/02/04 01:45:19;;;;;;;0.40;0.40;;;;;;;1.71;69.23;96534.72;5004425;28;20598;-58
2023/02/04 01:47:46;;;;;;;0.40;0.40;;;;;;;2.38;70.84;96711.25;5004495;28;20151;-58
2023/02/04 01:50:15;;;;;;;0.40;0.40;;;;;;;2.54;70.78;96637.69;5005143;28;20050;-58
2023/02/04 01:52:43;;;;;;;2.60;2.10;;;;;;;2.18;72.20;96615.50;5004393;28;20081;-60
2023/02/04 01:55:17;;;;;;;0.30;0.30;;;;;;;2.32;72.72;96640.69;5004128;28;20050;-59
2023/02/04 01:57:44;;;;;;;0.50;0.50;;;;;;;1.73;73.54;96617.06;5003972;28;20476;-57
2023/02/04 02:00:16;;;;;;;0.40;0.40;;;;;;;2.06;73.12;96634.50;5004193;28;20061;-57
2023/02/04 02:02:46;;;;;;;2.10;2.08;;;;;;;2.25;71.93;96632.19;5004333;28;20058;-57
2023/02/04 02:05:23;;;;;;;0.98;0.93;;;;;;;2.27;72.57;96619.00;4989017;28;20058;-58
2023/02/04 02:07:52;;;;;;;0.40;0.40;;;;;;;1.94;74.06;96560.66;4984534;28;20068;-58
2023/02/04 02:10:20;;;;;;;0.40;0.40;;;;;;;1.87;74.71;96552.16;4984661;28;20095;-58
2023/02/04 02:12:47;;;;;;;0.40;0.40;;;;;;;2.20;75.27;96591.38;4987692;28;20121;-59
2023/02/04 02:15:15;;;;;;;0.40;0.40;;;;;;;2.03;75.41;96572.34;5004185;28;20052;-57
2023/02/04 02:17:43;;;;;;;0.40;0.40;;;;;;;2.27;75.59;96597.16;5004047;28;20050;-57
2023/02/04 02:20:12;;;;;;;0.40;0.40;;;;;;;1.89;75.12;96544.44;5003719;28;20141;-57
2023/02/04 02:23:14;;;;;;;0.40;0.40;;;;;;;2.19;74.64;96603.44;5007258;28;20108;-59
2023/02/04 02:25:41;;;;;;;1.95;1.85;;;;;;;1.83;75.58;96601.16;5004641;28;20088;-57
2023/02/04 02:28:14;;;;;;;0.40;0.40;;;;;;;1.82;75.11;96593.31;5006851;28;20112;-59
2023/02/04 02:30:44;;;;;;;0.50;0.50;;;;;;;1.37;76.85;96599.16;5007513;28;20061;-58
2023/02/04 02:33:16;;;;;;;0.32;0.32;;;;;;;1.46;76.87;96586.31;5007478;28;20134;-57
2023/02/04 02:35:47;;;;;;;0.32;0.32;;;;;;;1.55;77.13;96578.91;4993968;28;20049;-57
2023/02/04 02:38:16;;;;;;;1.75;0.63;;;;;;;0.65;78.08;96508.22;5006845;28;20056;-58
2023/02/04 02:40:43;;;;;;;0.40;0.40;;;;;;;1.47;77.47;96582.44;5007001;28;20500;-57
2023/02/04 02:43:16;;;;;;;0.30;0.30;;;;;;;1.56;76.89;96585.94;5007565;28;20045;-59
2023/02/04 02:45:43;;;;;;;0.30;0.30;;;;;;;1.56;78.20;96582.44;5007585;28;20077;-57
2023/02/04 02:48:10;;;;;;;4.30;1.85;;;;;;;1.28;78.23;96579.25;5005749;28;20506;-58
2023/02/04 02:50:38;;;;;;;3.63;3.33;;;;;;;1.49;79.16;96573.94;5006558;28;20508;-59
2023/02/04 02:53:11;;;;;;;0.40;0.40;;;;;;;1.69;78.83;96584.19;4988077;28;20468;-58
2023/02/04 02:55:38;;;;;;;0.40;0.40;;;;;;;1.78;78.96;96567.75;5004908;28;20062;-58
2023/02/04 02:58:13;;;;;;;0.32;0.32;;;;;;;1.95;78.39;96562.25;5007413;28;20120;-57
2023/02/04 03:00:39;;;;;;;0.30;0.30;;;;;;;2.01;77.33;96571.88;5006204;28;20165;-58
2023/02/04 03:03:23;;;;;;;0.30;0.30;;;;;;;2.02;76.56;96554.34;5007230;28;20152;-58
2023/02/04 03:05:59;;;;;;;0.88;0.88;;;;;;;2.16;76.83;96549.47;5005978;28;20085;-59
2023/02/04 03:08:26;;;;;;;0.38;0.38;;;;;;;2.02;76.81;96532.50;5006791;28;20132;-56
2023/02/04 03:10:53;;;;;;;0.40;0.40;;;;;;;1.73;76.66;96503.22;5005988;28;20053;-57
2023/02/04 03:13:20;;;;;;;0.30;0.30;;;;;;;1.76;76.64;96482.66;4991640;28;20081;-57
2023/02/04 03:15:47;;;;;;;0.38;0.38;;;;;;;2.26;76.96;96535.44;5006167;28;20085;-57
2023/02/04 03:18:16;;;;;;;0.40;0.40;;;;;;;1.79;76.26;96462.91;5006520;28;20049;-57
2023/02/04 03:20:43;;;;;;;0.40;0.40;;;;;;;2.23;76.44;96519.72;5005042;28;20512;-57
2023/02/04 03:23:11;;;;;;;0.40;0.40;;;;;;;2.23;76.68;96519.72;5006776;28;20112;-59
2023/02/04 03:25:38;;;;;;;0.40;0.40;;;;;;;2.18;77.14;96514.44;5005061;28;20093;-57
2023/02/04 03:28:04;;;;;;;0.40;0.40;;;;;;;2.28;75.84;96514.03;5005858;28;20057;-58
2023/02/04 03:30:31;;;;;;;1.58;1.48;;;;;;;2.23;75.35;96514.25;5006127;28;20053;-57
2023/02/04 03:32:58;;;;;;;0.40;0.40;;;;;;;2.22;75.08;96520.84;5006568;28;20097;-57
2023/02/04 03:35:25;;;;;;;0.32;0.32;;;;;;;2.26;74.68;96516.31;5006406;28;20074;-56
2023/02/04 03:37:52;;;;;;;0.40;0.40;;;;;;;2.16;74.75;96494.84;5006220;28;20061;-58
2023/02/04 03:40:19;;;;;;;0.40;0.40;;;;;;;2.23;74.80;96506.06;5005669;28;20092;-58
2023/02/04 03:42:45;;;;;;;0.30;0.30;;;;;;;2.27;75.13;96517.91;5006744;28;20089;-58
2023/02/04 03:45:12;;;;;;;0.40;0.40;;;;;;;2.36;74.90;96507.72;5004492;28;20104;-58
2023/02/04 03:47:39;;;;;;;0.40;0.40;;;;;;;2.21;74.62;96489.19;5006361;28;20053;-56
2023/02/04 03:50:05;;;;;;;0.40;0.40;;;;;;;2.14;75.12;96486.97;5006166;28;20042;-57
2023/02/04 03:52:32;;;;;;;0.40;0.40;;;;;;;2.32;74.49;96501.34;5005862;28;20141;-57
2023/02/04 03:54:59;;;;;;;0.30;0.30;;;;;;;2.26;75.01;96499.94;5005867;28;20421;-57
2023/02/04 03:57:25;;;;;;;0.30;0.30;;;;;;;1.87;75.00;96437.47;5006413;28;20102;-58
2023/02/04 03:59:52;;;;;;;0.40;0.40;;;;;;;2.04;74.82;96451.06;5006222;28;20563;-58
2023/02/04 04:02:18;;;;;;;0.40;0.40;;;;;;;2.43;74.25;96483.44;5005618;28;20093;-59
2023/02/04 04:04:45;;;;;;;0.40;0.40;;;;;;;2.31;74.81;96486.09;5004640;28;20050;-56
2023/02/04 04:07:12;;;;;;;0.30;0.30;;;;;;;2.32;75.13;96476.75;5005564;28;20132;-58
2023/02/04 04:09:38;;;;;;;0.40;0.40;;;;;;;2.38;75.28;96475.41;5005907;28;20054;-57
2023/02/04 04:12:05;;;;;;;0.40;0.40;;;;;;;2.40;76.19;96473.16;5005468;28;20050;-58
2023/02/04 04:14:32;;;;;;;0.30;0.30;;;;;;;2.35;76.47;96463.22;5005556;28;20149;-58
2023/02/04 04:16:58;;;;;;;0.40;0.40;;;;;;;2.27;76.38;96430.50;5005430;28;20088;-59
2023/02/04 04:19:25;;;;;;;1.75;1.65;;;;;;;2.46;76.02;96466.34;5005695;28;20092;-57
2023/02/04 04:21:51;;;;;;;0.40;0.40;;;;;;;2.34;76.50;96458.09;5005654;28;20081;-59
2023/02/04 04:24:18;;;;;;;0.38;0.38;;;;;;;2.23;76.62;96449.47;5004250;28;20053;-59
2023/02/04 04:26:44;;;;;;;0.55;0.55;;;;;;;1.91;78.65;96431.06;5005671;28;20601;-58
2023/02/04 04:29:11;;;;;;;0.70;0.70;;;;;;;2.06;79.03;96465.16;5004184;28;20145;-58
2023/02/04 04:31:38;;;;;;;0.40;0.40;;;;;;;2.09;79.34;96467.22;5005513;28;20046;-58
2023/02/04 04:34:04;;;;;;;0.40;0.40;;;;;;;1.79;79.85;96427.44;5005885;28;20053;-58
2023/02/04 04:36:31;;;;;;;0.30;0.30;;;;;;;2.01;80.57;96470.84;5005413;28;20058;-59
2023/02/04 04:38:58;;;;;;;1.02;0.75;;;;;;;2.04;80.78;96486.56;5005902;28;20057;-59
2023/02/04 04:41:25;;;;;;;0.40;0.40;;;;;;;1.94;81.44;96473.28;5005555;28;20465;-59
2023/02/04 04:43:52;;;;;;;0.30;0.30;;;;;;;1.44;82.09;96392.09;5005386;28;20307;-60
2023/02/04 04:46:18;;;;;;;0.40;0.40;;;;;;;1.85;82.74;96434.28;5004844;28;20050;-59
2023/02/04 04:48:45;;;;;;;0.40;0.40;;;;;;;1.79;83.48;96419.25;5005452;28;20050;-59
2023/02/04 04:51:12;;;;;;;0.30;0.30;;;;;;;1.97;82.16;96448.03;5003626;28;20046;-58
2023/02/04 04:53:38;;;;;;;0.40;0.40;;;;;;;2.04;82.13;96448.31;5005195;28;20151;-58
2023/02/04 04:56:05;;;;;;;0.88;0.88;;;;;;;2.08;81.90;96438.31;5005283;28;20077;-58
2023/02/04 04:58:32;;;;;;;2.70;2.47;;;;;;;1.72;82.41;96375.28;5003614;28;20104;-58
2023/02/04 05:00:58;;;;;;;0.38;0.38;;;;;;;2.10;82.29;96430.63;5004561;28;20093;-60
2023/02/04 05:03:26;;;;;;;0.40;0.40;;;;;;;2.11;82.02;96433.00;5005072;28;20054;-58
2023/02/04 05:05:52;;;;;;;0.60;0.60;;;;;;;2.22;81.79;96438.88;5004507;28;20540;-58
2023/02/04 05:08:19;;;;;;;0.35;0.35;;;;;;;2.23;81.30;96429.56;5005002;28;20490;-59
2023/02/04 05:10:46;;;;;;;0.40;0.40;;;;;;;2.02;81.01;96395.97;5003189;28;20137;-59
2023/02/04 05:13:13;;;;;;;0.40;0.40;;;;;;;2.24;80.83;96447.53;5004647;28;20096;-58
2023/02/04 05:15:39;;;;;;;0.55;0.55;;;;;;;2.18;81.78;96457.84;5004416;28;20104;-58
2023/02/04 05:18:06;;;;;;;0.30;0.30;;;;;;;2.18;81.20;96459.81;5004530;28;20497;-59
2023/02/04 05:20:33;;;;;;;0.40;0.40;;;;;;;2.23;81.53;96462.34;5004872;28;20108;-58
2023/02/04 05:23:00;;;;;;;1.05;1.05;;;;;;;2.11;81.97;96454.06;5003576;28;20145;-59
2023/02/04 05:25:27;;;;;;;2.47;2.38;;;;;;;1.56;82.43;96369.59;5004836;28;20132;-58
2023/02/04 05:27:54;;;;;;;0.40;0.40;;;;;;;2.18;82.69;96444.19;5004429;28;20052;-58
2023/02/04 05:30:21;;;;;;;0.40;0.40;;;;;;;2.15;84.08;96427.69;5004269;28;20064;-59
2023/02/04 05:32:48;;;;;;;0.40;0.40;;;;;;;2.09;84.56;96398.94;5004453;28;20054;-59
2023/02/04 05:35:15;;;;;;;0.40;0.40;;;;;;;2.23;84.48;96422.16;5004409;28;20061;-58
2023/02/04 05:37:41;;;;;;;0.40;0.40;;;;;;;2.21;84.62;96409.97;5002996;28;20058;-59
2023/02/04 05:40:09;;;;;;;0.40;0.40;;;;;;;2.18;85.30;96413.38;5004512;28;20046;-58
2023/02/04 05:42:35;;;;;;;4.28;3.05;;;;;;;2.24;85.17;96414.75;5004196;28;20084;-60
2023/02/04 05:45:03;;;;;;;0.40;0.40;;;;;;;2.27;85.44;96419.56;5004544;28;20046;-58
2023/02/04 05:47:29;;;;;;;0.38;0.38;;;;;;;2.33;85.23;96416.31;5002518;28;21317;-57
2023/02/04 05:49:56;;;;;;;5.47;2.28;;;;;;;2.37;84.21;96425.41;5004384;28;20053;-59
2023/02/04 05:52:22;;;;;;;0.82;0.82;;;;;;;2.40;84.48;96440.38;5002577;28;20575;-57
2023/02/04 05:54:49;;;;;;;0.40;0.40;;;;;;;2.29;83.67;96389.97;5004615;28;20086;-59
2023/02/04 05:57:16;;;;;;;10.82;2.05;;;;;;;2.42;83.44;96432.66;5006752;28;20498;-57
2023/02/04 05:59:42;;;;;;;9.50;5.45;;;;;;;1.80;87.79;96446.22;5008495;28;20050;-56
2023/02/04 06:02:09;;;;;;;7.78;3.53;;;;;;;1.50;88.79;96423.53;5007307;28;20058;-57
2023/02/04 06:04:36;;;;;;;0.50;0.50;;;;;;;1.51;90.64;96452.44;5008241;28;20089;-59
2023/02/04 06:07:02;;;;;;;0.30;0.30;;;;;;;1.05;88.71;96335.16;5008531;28;20057;-58
2023/02/04 06:09:29;;;;;;;0.30;0.30;;;;;;;1.66;88.62;96421.03;5008141;28;20053;-58
2023/02/04 06:11:56;;;;;;;0.40;0.40;;;;;;;1.79;88.47;96428.22;5007703;28;20115;-57
2023/02/04 06:14:23;;;;;;;0.50;0.50;;;;;;;1.87;88.85;96448.41;5007959;28;20050;-58
2023/02/04 06:16:49;;;;;;;2.08;1.20;;;;;;;1.85;89.87;96445.22;5007261;28;20137;-58
2023/02/04 06:19:16;;;;;;;2.88;1.27;;;;;;;1.90;90.61;96445.03;5007102;28;20563;-57
2023/02/04 06:21:43;;;;;;;1.02;1.02;;;;;;;1.33;90.80;96369.03;5005644;28;20496;-58
2023/02/04 06:24:10;;;;;;;0.38;0.38;;;;;;;0.89;91.72;96298.66;5006453;28;20136;-58
2023/02/04 06:26:37;;;;;;;0.40;0.40;;;;;;;1.86;92.60;96463.19;5007734;28;20532;-57
2023/02/04 06:29:03;;;;;;;0.82;0.60;;;;;;;1.72;92.82;96416.22;5008002;28;20050;-57
2023/02/04 06:31:30;;;;;;;0.40;0.40;;;;;;;1.64;92.80;96408.88;5007467;28;20064;-58
2023/02/04 06:33:57;;;;;;;0.35;0.35;;;;;;;1.94;92.53;96451.41;5008120;28;20112;-59
2023/02/04 06:36:24;;;;;;;1.77;1.67;;;;;;;1.88;93.45;96450.78;5007365;28;20081;-57
2023/02/04 06:38:50;;;;;;;0.40;0.40;;;;;;;1.79;93.50;96435.63;5007732;28;20086;-58
2023/02/04 06:41:17;;;;;;;0.57;0.57;;;;;;;1.98;92.96;96449.63;5007231;28;20049;-57
2023/02/04 06:43:43;;;;;;;0.40;0.40;;;;;;;1.98;93.23;96449.63;4979487;28;20133;-60
2023/02/04 06:46:10;;;;;;;2.10;2.05;;;;;;;-0.88;93.69;96059.25;5006842;28;20104;-59
2023/02/04 06:48:37;;;;;;;0.77;0.63;;;;;;;2.09;95.02;96429.00;5007026;28;20053;-58
2023/02/04 06:51:04;;;;;;;0.55;0.55;;;;;;;2.06;94.21;96416.81;5007724;28;20096;-61
2023/02/04 06:53:30;;;;;;;1.23;1.15;;;;;;;2.29;92.19;96444.63;5001848;28;20078;-57
2023/02/04 06:55:57;;;;;;;0.40;0.40;;;;;;;2.34;91.04;96456.16;5006696;28;20089;-56
2023/02/04 06:58:23;;;;;;;1.63;1.20;;;;;;;2.27;89.80;96441.41;5006236;28;20081;-57
2023/02/04 07:00:50;;;;;;;0.32;0.32;;;;;;;1.46;89.75;96321.63;5006534;28;20061;-57
2023/02/04 07:03:17;;;;;;;0.65;0.60;;;;;;;2.43;90.24;96461.56;5004338;28;20314;-56
2023/02/04 07:05:43;;;;;;;0.40;0.40;;;;;;;2.02;90.06;96402.22;5005139;28;20141;-57
2023/02/04 07:08:10;;;;;;;0.40;0.40;;;;;;;2.08;90.50;96417.28;5004571;28;20046;-58
2023/02/04 07:10:37;;;;;;;0.93;0.93;;;;;;;1.84;92.14;96443.59;5005302;28;20112;-57
2023/02/04 07:13:03;;;;;;;1.02;1.02;;;;;;;2.42;93.52;96427.97;4992498;28;20487;-58
2023/02/04 07:15:30;;;;;;;1.17;1.05;;;;;;;2.43;94.83;96412.38;5004938;28;20119;-57
2023/02/04 07:17:57;;;;;;;1.13;1.13;;;;;;;2.53;94.95;96406.50;5004898;28;20151;-61
2023/02/04 07:20:24;;;;;;;0.60;0.60;;;;;;;2.24;95.37;96371.88;5004935;28;20120;-63
2023/02/04 07:22:50;;;;;;;1.40;0.90;;;;;;;1.39;94.67;96236.00;5004894;28;20532;-58
2023/02/04 07:25:17;;;;;;;2.00;1.90;;;;;;;2.50;94.84;96374.34;5004660;28;20128;-60
2023/02/04 07:27:44;;;;;;;4.28;3.97;;;;;;;2.80;93.46;96416.84;5002984;28;20125;-57
2023/02/04 07:30:11;;;;;;;0.45;0.45;;;;;;;2.80;94.43;96395.78;5005189;28;20679;-59
2023/02/04 07:32:38;;;;;;;0.40;0.40;;;;;;;3.09;93.69;96414.00;5003996;28;20046;-63
2023/02/04 07:35:05;;;;;;;0.85;0.68;;;;;;;2.96;92.40;96409.63;4985001;28;20505;-60
2023/02/04 07:37:32;;;;;;;0.40;0.40;;;;;;;0.85;90.28;96048.88;4994754;28;20046;-64
2023/02/04 07:39:58;;;;;;;0.90;0.90;;;;;;;3.03;92.14;96398.94;5004945;28;20050;-59
2023/02/04 07:42:25;;;;;;;0.85;0.85;;;;;;;3.16;91.33;96414.28;5004064;28;20433;-60
2023/02/04 07:44:52;;;;;;;2.25;2.15;;;;;;;3.27;90.55;96409.97;5005330;28;20072;-57
2023/02/04 07:47:18;;;;;;;1.00;0.95;;;;;;;3.17;90.90;96393.16;5004032;28;20074;-60
2023/02/04 07:49:45;;;;;;;0.60;0.60;;;;;;;3.05;89.80;96363.84;5003293;28;20140;-56
2023/02/04 07:52:12;;;;;;;0.75;0.75;;;;;;;3.52;88.92;96397.91;5002835;28;20054;-58
2023/02/04 07:54:38;;;;;;;0.60;0.60;;;;;;;3.64;88.72;96414.34;5004103;28;20050;-59
2023/02/04 07:57:05;;;;;;;2.70;2.05;;;;;;;2.22;91.31;96253.13;5003289;28;20103;-56
2023/02/04 07:59:32;;;;;;;0.50;0.50;;;;;;;2.93;92.44;96320.88;5003040;28;20060;-60
2023/02/04 08:02:00;;;;;;;0.50;0.50;;;;;;;3.07;90.41;96334.22;4955827;28;1366030;-58
2023/02/04 08:04:27;;;;;;;1.98;1.65;;;;;;;3.27;90.69;96399.03;5003140;28;20477;-59
2023/02/04 08:06:53;;;;;;;0.95;0.95;;;;;;;2.55;93.57;96324.97;4990368;28;20061;-59
2023/02/04 08:09:20;;;;;;;0.70;0.70;;;;;;;3.21;94.01;96367.50;5003854;28;20104;-59
2023/02/04 08:11:47;;;;;;;0.40;0.40;;;;;;;3.53;92.08;96391.28;5004363;28;20073;-56
2023/02/04 08:14:13;;;;;;;0.63;0.63;;;;;;;3.82;90.01;96395.75;5004909;28;20053;-64
2023/02/04 08:16:40;;;;;;;0.55;0.55;;;;;;;4.28;88.72;96398.75;5004964;28;20050;-57
2023/02/04 08:19:07;;;;;;;0.50;0.50;;;;;;;4.75;85.02;96395.44;5004177;28;20061;-57
2023/02/04 08:21:33;;;;;;;5.38;5.07;;;;;;;4.80;81.95;96345.81;5004515;28;20586;-57
2023/02/04 08:24:00;;;;;;;0.50;0.50;;;;;;;5.15;80.77;96385.19;5004870;28;20050;-59
2023/02/04 08:26:26;;;;;;;1.25;1.25;;;;;;;5.44;80.45;96393.03;5004936;28;20106;-62
2023/02/04 08:28:53;;;;;;;0.50;0.50;;;;;;;5.65;79.71;96379.84;5003982;28;20081;-58
2023/02/04 08:31:20;;;;;;;0.50;0.50;;;;;;;5.54;79.10;96332.06;4986586;28;20054;-59
2023/02/04 08:33:47;;;;;;;0.50;0.50;;;;;;;5.29;79.08;96358.13;5004523;28;20085;-60
2023/02/04 08:36:14;;;;;;;0.55;0.55;;;;;;;4.41;79.41;96186.50;5001343;28;20826;-64
2023/02/04 08:38:40;;;;;;;0.82;0.82;;;;;;;5.88;78.03;96386.34;5014640;28;20053;-61
2023/02/04 08:41:07;;;;;;;0.50;0.50;;;;;;;5.95;77.68;96361.75;5012209;28;20057;-64
2023/02/04 08:43:34;;;;;;;1.90;1.80;;;;;;;5.91;77.25;96347.94;5003569;28;20085;-61
2023/02/04 08:46:00;;;;;;;0.60;0.60;;;;;;;5.61;76.30;96269.88;5019631;28;20804;-59
2023/02/04 08:48:27;;;;;;;0.60;0.60;;;;;;;5.66;75.54;96257.81;5015445;28;20077;-59
2023/02/04 08:50:53;;;;;;;0.57;0.57;;;;;;;6.38;74.66;96393.78;5016402;28;20089;-61
2023/02/04 08:53:20;;;;;;;0.60;0.60;;;;;;;6.20;75.45;96379.63;4995265;28;20235;-60
2023/02/04 08:55:47;;;;;;;0.50;0.50;;;;;;;5.67;75.53;96315.16;4987327;28;20053;-59
2023/02/04 08:58:14;;;;;;;2.17;2.08;;;;;;;6.02;75.99;96383.94;5003482;28;20073;-58
2023/02/04 09:00:40;;;;;;;2.38;2.03;;;;;;;6.03;75.88;96391.00;5001318;28;20137;-59
2023/02/04 09:03:07;;;;;;;7.43;4.88;;;;;;;6.00;76.33;96381.53;5002001;28;20488;-64
2023/02/04 09:05:34;;;;;;;0.70;0.70;;;;;;;5.88;77.27;96386.34;5003575;28;20081;-60
2023/02/04 09:08:00;;;;;;;1.35;1.35;;;;;;;5.75;78.17;96387.56;5000430;28;20446;-58
2023/02/04 09:10:27;;;;;;;2.58;2.47;;;;;;;5.58;79.02;96376.94;5002034;28;20049;-57
2023/02/04 09:12:54;;;;;;;0.50;0.50;;;;;;;5.10;80.19;96267.44;5004047;28;20054;-59
2023/02/04 09:15:24;;;;;;;2.03;1.92;;;;;;;5.86;81.03;96388.66;4985384;28;20061;-66
2023/02/04 09:18:03;;;;;;;2.05;1.45;;;;;;;4.93;80.60;96229.38;4998904;28;20517;-62
2023/02/04 09:20:30;;;;;;;0.70;0.70;;;;;;;5.97;79.29;96378.69;4992366;28;20053;-57
2023/02/04 09:22:57;;;;;;;0.60;0.60;;;;;;;5.72;82.42;96374.53;4992656;28;20061;-66
2023/02/04 09:25:23;;;;;;;0.70;0.70;;;;;;;6.02;81.67;96335.22;4983651;28;20093;-58
2023/02/04 09:27:50;;;;;;;1.50;1.40;;;;;;;6.03;80.97;96273.63;4996710;28;20096;-61
2023/02/04 09:30:17;;;;;;;2.10;2.00;;;;;;;6.64;80.21;96341.69;5003741;28;20050;-57
2023/02/04 09:32:43;;;;;;;0.85;0.85;;;;;;;6.77;77.81;96297.13;4991487;28;20124;-59
2023/02/04 09:35:10;;;;;;;0.60;0.60;;;;;;;6.86;79.21;96327.97;4982586;28;20120;-56
2023/02/04 09:37:37;;;;;;;3.45;1.92;;;;;;;6.49;77.59;96268.28;4999282;28;20073;-57
2023/02/04 09:40:04;;;;;;;1.70;1.60;;;;;;;6.75;77.72;96288.44;4999457;28;20115;-59
2023/02/04 09:42:31;;;;;;;1.02;1.02;;;;;;;6.64;78.21;96275.66;5001283;28;20054;-58
2023/02/04 09:45:00;;;;;;;0.70;0.70;;;;;;;6.92;76.42;96304.53;4999568;28;20088;-55
2023/02/04 09:47:26;;;;;;;0.93;0.93;;;;;;;6.80;78.15;96307.41;4989077;28;20054;-59
2023/02/04 09:49:53;;;;;;;0.85;0.85;;;;;;;6.29;78.71;96226.25;4998818;28;20128;-55
2023/02/04 09:52:23;;;;;;;1.67;1.38;;;;;;;6.52;79.04;96295.84;5003051;28;20050;-55
2023/02/04 09:54:50;;;;;;;0.70;0.70;;;;;;;6.07;80.50;96246.19;5002936;28;20111;-56
2023/02/04 09:57:18;;;;;;;1.30;0.82;;;;;;;5.50;82.75;96166.44;5002213;28;20505;-55
2023/02/04 09:59:45;;;;;;;1.98;0.93;;;;;;;6.18;82.36;96285.69;5002075;28;20054;-57
2023/02/04 10:02:25;;;;;;;2.13;1.52;;;;;;;6.05;81.41;96287.00;4997506;28;20062;-57
2023/02/04 10:04:56;;;;;;;2.25;1.60;;;;;;;6.06;84.12;96285.84;4995507;28;20142;-59
2023/02/04 10:07:25;;;;;;;1.10;1.10;;;;;;;6.22;83.43;96275.59;4998751;28;20062;-56
2023/02/04 10:09:53;;;;;;;2.83;2.47;;;;;;;5.78;83.63;96216.50;4991515;28;20603;-57
2023/02/04 10:12:20;;;;;;;5.05;1.10;;;;;;;5.98;82.95;96240.09;5013063;28;20053;-57
2023/02/04 10:14:48;;;;;;;1.30;1.17;;;;;;;6.36;82.09;96258.56;4987189;28;20056;-57
2023/02/04 10:17:20;;;;;;;1.65;1.55;;;;;;;6.58;82.59;96277.88;5002361;28;20078;-57
2023/02/04 10:19:47;;;;;;;3.75;1.85;;;;;;;6.24;81.81;96200.97;4994563;28;20116;-53
2023/02/04 10:22:20;;;;;;;1.67;0.80;;;;;;;6.58;82.99;96255.06;5022744;28;20165;-56
2023/02/04 10:24:46;;;;;;;0.93;0.93;;;;;;;6.62;84.59;96253.22;4996645;28;20970;-57
2023/02/04 10:27:16;;;;;;;3.13;1.70;;;;;;;6.30;82.13;96216.81;5002416;28;20088;-57
2023/02/04 10:29:55;;;;;;;1.15;1.15;;;;;;;6.51;83.66;96244.75;5001040;28;20529;-55
2023/02/04 10:32:28;;;;;;;6.93;2.08;;;;;;;6.53;82.76;96247.16;5000985;28;20053;-58
2023/02/04 10:34:58;;;;;;;1.95;1.85;;;;;;;6.45;84.73;96232.44;4992156;28;20481;-56
2023/02/04 10:37:25;;;;;;;3.13;1.67;;;;;;;6.48;81.74;96245.47;5003464;28;20045;-57
2023/02/04 10:39:52;;;;;;;0.93;0.90;;;;;;;6.19;84.08;96182.81;5003167;28;20062;-57
2023/02/04 10:42:23;;;;;;;0.60;0.60;;;;;;;6.81;84.13;96226.44;5002552;28;20487;-59
2023/02/04 10:44:50;;;;;;;0.90;0.90;;;;;;;7.23;84.53;96221.69;5006694;28;20081;-58
2023/02/04 10:47:20;;;;;;;0.70;0.70;;;;;;;7.30;82.40;96168.66;5001692;28;20049;-57
2023/02/04 10:49:56;;;;;;;1.70;1.60;;;;;;;8.08;78.58;96218.19;5006211;28;20054;-55
2023/02/04 10:52:32;;;;;;;0.65;0.65;;;;;;;8.25;75.55;96222.41;4990955;28;20518;-57
2023/02/04 10:54:59;;;;;;;1.23;1.10;;;;;;;8.24;74.64;96226.31;4999687;28;20155;-57
2023/02/04 10:57:28;;;;;;;0.95;0.93;;;;;;;8.38;71.24;96220.97;5006176;28;20560;-57
2023/02/04 11:00:00;;;;;;;1.95;1.27;;;;;;;8.33;69.60;96215.81;5006431;28;20143;-54
2023/02/04 11:02:44;;;;;;;2.28;1.70;;;;;;;8.12;68.11;96218.25;5005870;28;20061;-57
2023/02/04 11:05:14;;;;;;;0.70;0.70;;;;;;;8.18;67.14;96200.19;5005715;28;20104;-54
2023/02/04 11:07:41;;;;;;;0.70;0.70;;;;;;;8.16;68.52;96158.41;5004624;28;20108;-57
2023/02/04 11:10:13;;;;;;;2.47;2.28;;;;;;;8.56;68.48;96199.88;5004321;28;20050;-54
2023/02/04 11:12:52;;;;;;;0.70;0.70;;;;;;;8.74;67.25;96184.31;5004485;28;20541;-56
2023/02/04 11:15:48;;;;;;;4.05;1.65;;;;;;;8.40;70.21;96180.78;5005259;28;20050;-56
2023/02/04 11:18:19;;;;;;;1.92;1.77;;;;;;;7.44;76.81;96183.47;5005930;28;20507;-57
2023/02/04 11:20:52;;;;;;;0.70;0.70;;;;;;;7.88;75.37;96175.41;5003511;28;20056;-56
2023/02/04 11:23:25;;;;;;;3.60;1.35;;;;;;;7.28;75.58;96174.53;5005667;28;20132;-59
2023/02/04 11:26:31;;;;;;;4.68;1.65;;;;;;;7.74;75.04;96164.19;5005124;28;20092;-55
2023/02/04 11:28:58;;;;;;;6.20;3.80;;;;;;;7.37;75.28;96168.75;5001856;28;20065;-57
2023/02/04 11:31:25;;;;;;;2.80;2.58;;;;;;;6.81;79.40;96176.88;5005596;28;20050;-54
2023/02/04 11:34:14;;;;;;;0.85;0.85;;;;;;;6.62;82.18;96179.72;5001038;28;20058;-54
2023/02/04 11:36:59;;;;;;;11.35;4.55;;;;;;;5.61;89.30;96173.72;5016069;28;20045;-57
2023/02/04 11:39:36;;;;;;;0.50;0.50;;;;;;;5.93;92.12;96168.94;5005610;28;20439;-56
2023/02/04 11:42:05;;;;;;;4.78;2.55;;;;;;;5.63;90.56;96176.09;5000393;28;20139;-57
2023/02/04 11:44:32;;;;;;;1.95;1.85;;;;;;;5.89;88.73;96179.88;4992426;28;20502;-57